Latest Weather Observations for Centre Island

IDD60801

Issued at 10:01 am CST Monday 6 July 2015 (issued every 30 minutes, with the page automatically refreshed every 10 minutes)

About weather observations | Map of weather stations | Latest weather observations for NT | Other Formats
Station Details ID: 014703 Name: CENTRE ISLAND Lat: -15.74 Lon: 136.82 Height: 12.2 m
Data from the previous 72 hours. | See also: Recent months at Centre Island
Date/Time
CST
Temp
°C
App
Temp
°C
Dew
Point
Rel
Hum
%
Delta-T
°C
Wind Press
QNH
hPa
Press
MSL
hPa
Rain
since 9 am
mm
Dir
 
Spd
km/h
Gust
km/h
Spd
kts
Gust
kts
06/10:00am 24.1 23.0 16.4 62 4.7 SE 17 20 9 11 1016.7 1016.7 0.0
06/09:30am 23.0 20.6 15.3 62 4.6 SSE 22 24 12 13 1016.7 1016.7 0.0
06/09:00am 22.3 20.8 16.8 71 3.4 SSE 20 24 11 13 1016.7 1016.7 0.0
06/08:30am 21.8 20.7 17.4 76 2.7 SE 19 20 10 11 1016.4 1016.4 0.0
06/08:00am 20.9 19.8 17.3 80 2.2 SSE 19 20 10 11 1016.1 1016.1 0.0
06/07:30am 19.6 18.2 17.0 85 1.6 SSE 20 24 11 13 1015.6 1015.6 0.0
06/07:00am 19.3 17.5 17.8 91 0.9 SSE 24 28 13 15 1015.3 1015.3 0.0
06/06:30am 19.2 18.4 18.4 95 0.5 SSE 20 22 11 12 1015.1 1015.1 0.0
06/06:00am 19.6 19.2 19.3 98 0.2 SSE 20 24 11 13 1015.0 1015.0 0.0
06/05:30am 20.4 20.6 20.2 99 0.1 SSE 19 22 10 12 1014.6 1014.6 0.0
06/05:00am 20.1 21.3 19.9 99 0.1 SE 13 17 7 9 1014.5 1014.5 0.0
06/04:30am 19.8 20.4 19.5 98 0.2 SE 15 17 8 9 1014.4 1014.4 0.0
06/04:00am 20.0 20.3 19.7 98 0.2 SE 17 20 9 11 1014.3 1014.3 0.0
06/03:30am 20.1 20.5 19.8 98 0.2 SE 17 19 9 10 1014.4 1014.4 0.0
06/03:00am 20.2 20.6 19.9 98 0.2 SE 17 20 9 11 1014.5 1014.5 0.0
06/02:30am 20.4 20.8 19.9 97 0.3 SE 17 19 9 10 1014.6 1014.6 0.0
06/02:00am 20.7 21.6 20.0 96 0.4 SE 15 19 8 10 1014.8 1014.8 0.0
06/01:30am 21.1 22.0 20.1 94 0.6 SE 15 15 8 8 1015.0 1015.0 0.0
06/01:00am 21.4 22.7 20.2 93 0.8 SSE 13 15 7 8 1015.1 1015.1 0.0
06/12:30am 22.0 23.6 20.8 93 0.8 SE 13 15 7 8 1015.1 1015.1 0.0
06/12:00am 22.0 23.9 20.5 91 1.0 ESE 11 13 6 7 1015.4 1015.4 0.0
 
Date/Time
CST
Temp
°C
App
Temp
°C
Dew
Point
Rel
Hum
%
Delta-T
°C
Wind Press
QNH
hPa
Press
MSL
hPa
Rain
since 9 am
mm
Dir
 
Spd
km/h
Gust
km/h
Spd
kts
Gust
kts
05/11:30pm 21.9 23.6 20.2 90 1.1 E 11 13 6 7 1015.3 1015.3 0.0
05/11:00pm 22.0 24.1 20.1 89 1.2 ENE 9 13 5 7 1015.5 1015.5 0.0
05/10:30pm 22.2 23.6 20.3 89 1.2 ENE 13 17 7 9 1015.6 1015.6 0.0
05/10:00pm 22.2 23.2 20.3 89 1.2 ENE 15 19 8 10 1015.7 1015.7 0.0
05/09:30pm 22.2 23.1 20.1 88 1.3 ENE 15 19 8 10 1015.7 1015.7 0.0
05/09:00pm 22.2 23.0 19.9 87 1.5 E 15 19 8 10 1015.6 1015.6 0.0
05/08:30pm 22.3 23.5 19.8 86 1.6 E 13 15 7 8 1015.5 1015.5 0.0
05/08:00pm 22.5 23.1 19.5 83 1.9 E 15 17 8 9 1015.3 1015.3 0.0
05/07:30pm 22.5 23.0 19.3 82 2.0 E 15 17 8 9 1015.0 1015.0 0.0
05/07:00pm 23.0 23.5 19.2 79 2.4 E 15 17 8 9 1014.8 1014.8 0.0
05/06:30pm 23.3 23.8 19.2 78 2.6 ENE 15 17 8 9 1014.6 1014.6 0.0
05/06:00pm 23.4 23.4 18.9 76 2.9 E 17 19 9 10 1014.5 1014.5 0.0
05/05:30pm 23.8 23.8 18.9 74 3.1 E 17 20 9 11 1014.4 1014.4 0.0
05/05:00pm 24.8 24.2 18.5 68 4.0 E 19 22 10 12 1014.4 1014.4 0.0
05/04:30pm 25.5 24.9 18.4 65 4.5 E 19 22 10 12 1014.4 1014.4 0.0
05/04:00pm 25.8 24.9 18.2 63 4.8 E 20 26 11 14 1014.3 1014.3 0.0
05/03:30pm 26.5 24.5 18.4 61 5.1 E 26 30 14 16 1014.2 1014.2 0.0
05/03:00pm 26.4 24.3 17.2 57 5.7 E 24 32 13 17 1014.4 1014.4 0.0
05/02:30pm 26.7 24.7 17.5 57 5.8 E 24 28 13 15 1014.5 1014.5 0.0
05/02:00pm 26.6 23.7 17.1 56 5.9 ESE 28 33 15 18 1014.8 1014.8 0.0
05/01:30pm 26.6 23.4 15.3 50 6.8 ESE 26 32 14 17 1015.0 1015.0 0.0
05/01:00pm 26.7 22.3 15.1 49 7.0 ESE 32 37 17 20 1015.3 1015.3 0.0
05/12:30pm 26.6 22.3 14.4 47 7.3 ESE 30 35 16 19 1015.7 1015.7 0.0
05/12:00pm 25.9 21.9 13.1 45 7.5 E 26 33 14 18 1016.0 1016.0 0.0
05/11:30am 25.8 23.9 14.3 49 6.8 ESE 17 22 9 12 1016.3 1016.3 0.0
05/11:00am 24.8 23.9 14.9 54 5.9 ESE 13 17 7 9 1016.5 1016.5 0.0
05/10:30am 24.2 22.9 13.7 52 6.1 SE 13 15 7 8 1016.8 1016.8 0.0
05/10:00am 23.3 21.5 13.2 53 5.8 SE 15 17 8 9 1016.8 1016.8 0.0
05/09:30am 22.3 19.9 12.5 53 5.6 SSE 17 20 9 11 1016.8 1016.8 0.0
05/09:00am 21.8 18.9 12.9 57 5.1 SSE 20 24 11 13 1016.8 1016.8 0.0
05/08:30am 20.6 17.2 12.6 60 4.5 SSE 22 26 12 14 1016.6 1016.6 0.0
05/08:00am 19.9 16.7 13.1 65 3.9 S 22 28 12 15 1016.3 1016.3 0.0
05/07:30am 19.5 16.0 13.4 68 3.5 S 24 30 13 16 1015.8 1015.8 0.0
05/07:00am 19.5 17.1 14.5 73 2.9 SSW 20 24 11 13 1015.4 1015.4 0.0
05/06:30am 19.3 17.4 15.2 77 2.4 S 19 24 10 13 1015.0 1015.0 0.0
05/06:00am 19.2 17.9 15.9 81 2.0 SSW 17 22 9 12 1014.9 1014.9 0.0
05/05:30am 19.9 19.3 17.5 86 1.5 S 17 19 9 10 1014.9 1014.9 0.0
05/05:00am 19.8 20.1 17.9 89 1.2 SE 13 15 7 8 1014.8 1014.8 0.0
05/04:30am 19.9 19.4 17.9 88 1.2 SE 17 19 9 10 1014.8 1014.8 0.0
05/04:00am 20.0 19.5 17.8 87 1.4 SSE 17 17 9 9 1014.6 1014.6 0.0
05/03:30am 19.9 19.4 17.9 88 1.2 SE 17 19 9 10 1014.5 1014.5 0.0
05/03:00am 20.0 19.6 18.1 89 1.2 SE 17 20 9 11 1014.6 1014.6 0.0
05/02:30am 20.3 20.1 18.6 90 1.1 SSE 17 24 9 13 1014.4 1014.4 0.0
05/02:00am 20.5 22.0 18.8 90 1.1 ESE 9 11 5 6 1014.4 1014.4 0.0
05/01:30am 20.5 22.2 18.4 88 1.3 ESE 7 9 4 5 1014.6 1014.6 0.0
05/01:00am 21.2 21.9 18.9 87 1.4 SE 13 15 7 8 1014.9 1014.9 0.0
05/12:30am 21.5 21.4 18.7 84 1.8 ESE 17 19 9 10 1015.1 1015.1 0.0
05/12:00am 21.6 21.4 18.4 82 2.0 E 17 19 9 10 1015.0 1015.0 0.0
 
Date/Time
CST
Temp
°C
App
Temp
°C
Dew
Point
Rel
Hum
%
Delta-T
°C
Wind Press
QNH
hPa
Press
MSL
hPa
Rain
since 9 am
mm
Dir
 
Spd
km/h
Gust
km/h
Spd
kts
Gust
kts
04/11:30pm 21.6 21.5 17.8 79 2.4 E 15 17 8 9 1015.1 1015.1 0.0
04/11:00pm 21.7 21.9 17.7 78 2.5 ENE 13 15 7 8 1015.2 1015.2 0.0
04/10:30pm 22.0 21.6 17.2 74 2.9 ENE 15 17 8 9 1015.3 1015.3 0.0
04/10:00pm 22.0 21.5 16.9 73 3.1 ENE 15 19 8 10 1015.5 1015.5 0.0
04/09:30pm 22.3 21.8 17.0 72 3.2 NE 15 19 8 10 1015.4 1015.4 0.0
04/09:00pm 22.4 21.4 16.7 70 3.5 ENE 17 20 9 11 1015.1 1015.1 0.0
04/08:30pm 22.5 20.5 16.5 69 3.6 ENE 22 26 12 14 1014.8 1014.8 0.0
04/08:00pm 22.6 20.5 16.2 67 3.9 ENE 22 26 12 14 1014.4 1014.4 0.0
04/07:30pm 22.6 20.7 15.7 65 4.1 ENE 20 24 11 13 1014.1 1014.1 0.0
04/07:00pm 22.8 21.0 15.9 65 4.2 ENE 20 28 11 15 1013.8 1013.8 0.0
04/06:30pm 23.1 20.5 14.9 60 4.9 ENE 22 28 12 15 1013.6 1013.6 0.0
04/06:00pm 23.4 20.9 15.2 60 4.9 E 22 30 12 16 1013.3 1013.3 0.0
04/05:30pm 24.0 21.8 15.0 57 5.4 E 20 24 11 13 1013.0 1013.0 0.0
04/05:00pm 24.9 23.2 15.8 57 5.5 ESE 19 20 10 11 1012.9 1012.9 0.0
04/04:30pm 25.5 23.7 16.1 56 5.8 ESE 20 26 11 14 1012.6 1012.6 0.0
04/04:00pm 25.3 20.8 13.8 49 6.8 ESE 30 33 16 18 1012.5 1012.5 0.0
04/03:30pm 25.6 20.8 14.1 49 6.8 ESE 32 35 17 19 1012.5 1012.5 0.0
04/03:00pm 26.0 21.9 13.8 47 7.2 ESE 28 32 15 17 1012.9 1012.9 0.0
04/02:30pm 26.4 22.3 14.8 49 7.0 ESE 30 33 16 18 1013.3 1013.3 0.0
04/02:00pm 26.5 23.1 13.6 45 7.6 ESE 24 28 13 15 1013.7 1013.7 0.0
04/01:30pm 26.6 23.4 13.0 43 7.9 ESE 22 28 12 15 1014.3 1014.3 0.0
04/01:00pm 26.1 23.2 13.9 47 7.2 ESE 22 26 12 14 1014.8 1014.8 0.0
04/12:30pm 25.8 21.7 12.6 44 7.6 ESE 26 30 14 16 1015.3 1015.3 0.0
04/12:00pm 25.2 21.2 13.1 47 7.0 ESE 26 30 14 16 1015.9 1015.9 0.0
04/11:30am 25.0 19.8 11.6 43 7.6 ESE 30 35 16 19 1016.5 1016.5 0.0
04/11:00am 24.1 19.3 11.8 46 7.0 ESE 28 33 15 18 1016.8 1016.8 0.0
04/10:30am 23.2 18.8 11.6 48 6.5 SE 26 32 14 17 1017.3 1017.3 0.0
04/10:00am 22.6 17.6 11.0 48 6.4 SE 28 33 15 18 1017.4 1017.4 0.0
04/09:30am 21.8 17.0 10.3 48 6.3 SE 26 30 14 16 1017.4 1017.4 0.0
04/09:00am 21.8 18.9 10.9 50 6.0 SE 17 24 9 13 1017.4 1017.4 0.0
04/08:30am 21.0 18.5 9.6 48 6.1 SSE 13 19 7 10 1017.2 1017.2 0.0
04/08:00am 20.3 17.1 9.8 51 5.6 SSE 17 20 9 11 1016.9 1016.9 0.0
04/07:30am 19.8 17.3 11.0 57 4.8 SE 15 19 8 10 1016.8 1016.8 0.0
04/07:00am 19.2 16.2 10.7 58 4.6 SSE 17 20 9 11 1016.5 1016.5 0.0
04/06:30am 19.3 15.7 10.6 57 4.7 SSE 20 24 11 13 1016.5 1016.5 0.0
04/06:00am 19.8 16.8 12.6 63 4.0 SSE 20 26 11 14 1016.2 1016.2 0.0
04/05:30am 19.3 16.6 12.8 66 3.7 S 19 24 10 13 1016.0 1016.0 0.0
04/05:00am 19.3 17.2 13.7 70 3.2 S 17 20 9 11 1015.9 1015.9 0.0
04/04:30am 19.5 17.5 13.9 70 3.2 S 17 20 9 11 1015.9 1015.9 0.0
04/04:00am 19.9 18.0 15.3 75 2.7 S 19 22 10 12 1015.7 1015.7 0.0
04/03:30am 20.4 19.9 16.8 80 2.2 SE 15 17 8 9 1015.7 1015.7 0.0
04/03:00am 20.4 19.1 16.8 80 2.2 SE 19 20 10 11 1015.6 1015.6 0.0
04/02:30am 20.5 19.1 17.1 81 2.1 SE 20 22 11 12 1015.4 1015.4 0.0
04/02:00am 20.7 19.3 16.9 79 2.3 SSE 20 24 11 13 1015.6 1015.6 0.0
04/01:30am 20.7 19.2 16.7 78 2.4 SSE 20 24 11 13 1015.9 1015.9 0.0
04/01:00am 20.6 19.1 16.4 77 2.5 SSE 19 20 10 11 1015.9 1015.9 0.0
04/12:30am 20.7 19.3 16.5 77 2.5 SSE 19 22 10 12 1016.0 1016.0 0.0
04/12:00am 20.8 20.3 17.0 79 2.3 SSE 15 17 8 9 1016.1 1016.1 0.0
 
Date/Time
CST
Temp
°C
App
Temp
°C
Dew
Point
Rel
Hum
%
Delta-T
°C
Wind Press
QNH
hPa
Press
MSL
hPa
Rain
since 9 am
mm
Dir
 
Spd
km/h
Gust
km/h
Spd
kts
Gust
kts
03/11:30pm 20.7 21.1 17.3 81 2.1 SSE 11 13 6 7 1016.3 1016.3 0.0
03/11:00pm 21.3 21.5 17.7 80 2.2 ESE 13 17 7 9 1016.4 1016.4 0.0
03/10:30pm 21.5 21.2 17.3 77 2.6 E 15 19 8 10 1016.4 1016.4 0.0
03/10:00pm 21.6 20.7 16.8 74 2.9 E 17 19 9 10 1016.4 1016.4 0.0
03/09:30pm 21.7 20.5 16.2 71 3.3 E 17 19 9 10 1016.1 1016.1 0.0
03/09:00pm 21.9 20.8 16.4 71 3.3 E 17 20 9 11 1016.0 1016.0 0.0
03/08:30pm 22.1 20.5 15.9 68 3.7 ESE 19 20 10 11 1015.9 1015.9 0.0
03/08:00pm 22.3 20.5 15.9 67 3.9 ESE 20 24 11 13 1015.8 1015.8 0.0
03/07:30pm 22.4 20.5 15.7 66 4.0 E 20 24 11 13 1015.4 1015.4 0.0
03/07:00pm 22.4 20.6 15.5 65 4.1 E 19 22 10 12 1015.3 1015.3 0.0
03/06:30pm 22.7 20.5 14.8 61 4.7 E 20 24 11 13 1015.0 1015.0 0.0
03/06:00pm 23.1 20.6 14.1 57 5.3 E 20 24 11 13 1014.7 1014.7 0.0
03/05:30pm 24.1 21.3 14.2 54 5.8 E 22 26 12 14 1014.4 1014.4 0.0
03/05:00pm 25.1 23.2 14.3 51 6.4 E 17 22 9 12 1014.3 1014.3 0.0
03/04:30pm 25.6 24.3 13.8 48 7.0 ENE 13 17 7 9 1014.3 1014.3 0.0
03/04:00pm 26.2 25.1 14.3 48 7.1 ENE 13 17 7 9 1014.5 1014.5 0.0
03/03:30pm 26.3 23.8 12.4 42 8.0 ENE 17 20 9 11 1014.5 1014.5 0.0
03/03:00pm 26.1 23.3 13.2 44 7.5 ENE 20 28 11 15 1014.6 1014.6 0.0
03/02:30pm 26.5 23.5 12.5 41 8.1 E 20 26 11 14 1015.0 1015.0 0.0
03/02:00pm 26.1 22.8 12.9 44 7.7 E 22 28 12 15 1015.4 1015.4 0.0
03/01:30pm 26.4 23.3 12.1 41 8.2 E 20 26 11 14 1016.0 1016.0 0.0
03/01:00pm 26.4 22.9 13.5 45 7.6 ESE 24 26 13 14 1016.5 1016.5 0.0
03/12:30pm 25.7 20.1 11.5 41 8.1 ESE 32 35 17 19 1017.1 1017.1 0.0
03/12:00pm 25.3 19.9 12.2 44 7.5 ESE 32 35 17 19 1017.6 1017.6 0.0
03/11:30am 24.7 19.2 12.3 46 7.1 ESE 33 39 18 21 1018.1 1018.1 0.0
03/11:00am 24.3 18.6 11.9 45 7.0 ESE 33 41 18 22 1018.4 1018.4 0.0
03/10:30am 23.8 19.0 11.8 47 6.8 ESE 28 32 15 17 1018.7 1018.7 0.0

Other Formats:

Comma delimited format used in spreadsheet applications
http://www.bom.gov.au/fwo/IDD60801/IDD60801.94248.axf

JavaScript Object Notation format (JSON) in row-major order
http://www.bom.gov.au/fwo/IDD60801/IDD60801.94248.json